sensor_id;sensor_type;location;lat;lon;timestamp;P1;durP1;ratioP1;P2;durP2;ratioP2
3207;SDS011;1616;52.394;9.756;2022-10-26T00:01:03;13.17;;;9.80;;
3207;SDS011;1616;52.394;9.756;2022-10-26T00:03:39;15.20;;;9.93;;
3207;SDS011;1616;52.394;9.756;2022-10-26T00:06:14;14.67;;;9.60;;
3207;SDS011;1616;52.394;9.756;2022-10-26T00:08:42;17.10;;;9.43;;
3207;SDS011;1616;52.394;9.756;2022-10-26T00:11:09;18.27;;;9.70;;
3207;SDS011;1616;52.394;9.756;2022-10-26T00:13:35;14.53;;;10.00;;
3207;SDS011;1616;52.394;9.756;2022-10-26T00:16:22;14.93;;;10.07;;
3207;SDS011;1616;52.394;9.756;2022-10-26T00:18:50;14.00;;;9.90;;
3207;SDS011;1616;52.394;9.756;2022-10-26T00:21:16;12.63;;;9.40;;
3207;SDS011;1616;52.394;9.756;2022-10-26T00:23:42;16.30;;;9.93;;
3207;SDS011;1616;52.394;9.756;2022-10-26T00:26:08;21.53;;;10.10;;
3207;SDS011;1616;52.394;9.756;2022-10-26T00:28:35;19.90;;;11.27;;
3207;SDS011;1616;52.394;9.756;2022-10-26T00:31:01;27.33;;;12.53;;
3207;SDS011;1616;52.394;9.756;2022-10-26T00:33:29;12.37;;;11.17;;
3207;SDS011;1616;52.394;9.756;2022-10-26T00:35:55;16.90;;;11.17;;
3207;SDS011;1616;52.394;9.756;2022-10-26T00:38:21;15.37;;;11.17;;
3207;SDS011;1616;52.394;9.756;2022-10-26T00:40:47;15.70;;;11.23;;
3207;SDS011;1616;52.394;9.756;2022-10-26T00:43:14;15.27;;;11.10;;
3207;SDS011;1616;52.394;9.756;2022-10-26T00:45:57;12.43;;;10.33;;
3207;SDS011;1616;52.394;9.756;2022-10-26T00:48:25;19.60;;;11.77;;
3207;SDS011;1616;52.394;9.756;2022-10-26T00:50:54;17.43;;;11.20;;
3207;SDS011;1616;52.394;9.756;2022-10-26T00:53:22;20.60;;;10.53;;
3207;SDS011;1616;52.394;9.756;2022-10-26T00:55:48;16.60;;;11.60;;
3207;SDS011;1616;52.394;9.756;2022-10-26T00:58:16;14.80;;;11.33;;
3207;SDS011;1616;52.394;9.756;2022-10-26T01:00:44;21.67;;;13.43;;
3207;SDS011;1616;52.394;9.756;2022-10-26T01:03:10;12.77;;;10.93;;
3207;SDS011;1616;52.394;9.756;2022-10-26T01:05:36;15.70;;;10.83;;
3207;SDS011;1616;52.394;9.756;2022-10-26T01:08:04;17.13;;;10.80;;
3207;SDS011;1616;52.394;9.756;2022-10-26T01:10:32;15.77;;;11.37;;
3207;SDS011;1616;52.394;9.756;2022-10-26T01:12:59;22.53;;;11.70;;
3207;SDS011;1616;52.394;9.756;2022-10-26T01:16:10;16.27;;;12.50;;
3207;SDS011;1616;52.394;9.756;2022-10-26T01:18:26;21.83;;;11.73;;
3207;SDS011;1616;52.394;9.756;2022-10-26T01:35:51;20.67;;;12.10;;
3207;SDS011;1616;52.394;9.756;2022-10-26T01:43:37;30.73;;;12.53;;
3207;SDS011;1616;52.394;9.756;2022-10-26T01:46:07;23.73;;;11.90;;
3207;SDS011;1616;52.394;9.756;2022-10-26T01:48:35;22.67;;;11.53;;
3207;SDS011;1616;52.394;9.756;2022-10-26T01:51:03;16.77;;;12.10;;
3207;SDS011;1616;52.394;9.756;2022-10-26T01:53:31;18.67;;;11.17;;
3207;SDS011;1616;52.394;9.756;2022-10-26T01:55:57;15.07;;;10.50;;
3207;SDS011;1616;52.394;9.756;2022-10-26T01:58:37;20.17;;;12.47;;
3207;SDS011;1616;52.394;9.756;2022-10-26T02:12:44;16.33;;;11.03;;
3207;SDS011;1616;52.394;9.756;2022-10-26T02:18:19;19.23;;;11.70;;
3207;SDS011;1616;52.394;9.756;2022-10-26T02:21:08;17.07;;;11.37;;
3207;SDS011;1616;52.394;9.756;2022-10-26T02:23:40;13.17;;;10.87;;
3207;SDS011;1616;52.394;9.756;2022-10-26T02:26:11;29.57;;;11.70;;
3207;SDS011;1616;52.394;9.756;2022-10-26T02:28:41;23.60;;;12.53;;
3207;SDS011;1616;52.394;9.756;2022-10-26T02:31:09;17.53;;;11.03;;
3207;SDS011;1616;52.394;9.756;2022-10-26T02:33:38;25.93;;;11.63;;
3207;SDS011;1616;52.394;9.756;2022-10-26T02:36:09;28.93;;;10.53;;
3207;SDS011;1616;52.394;9.756;2022-10-26T02:38:38;19.13;;;11.70;;
3207;SDS011;1616;52.394;9.756;2022-10-26T02:41:05;19.73;;;10.13;;
3207;SDS011;1616;52.394;9.756;2022-10-26T02:43:34;16.57;;;10.40;;
3207;SDS011;1616;52.394;9.756;2022-10-26T02:46:06;14.50;;;10.70;;
3207;SDS011;1616;52.394;9.756;2022-10-26T02:48:34;15.83;;;10.17;;
3207;SDS011;1616;52.394;9.756;2022-10-26T02:56:40;16.63;;;10.30;;
3207;SDS011;1616;52.394;9.756;2022-10-26T02:59:09;21.43;;;12.20;;
3207;SDS011;1616;52.394;9.756;2022-10-26T03:01:36;14.43;;;10.30;;
3207;SDS011;1616;52.394;9.756;2022-10-26T03:04:02;13.97;;;10.23;;
3207;SDS011;1616;52.394;9.756;2022-10-26T03:06:28;19.17;;;9.73;;
3207;SDS011;1616;52.394;9.756;2022-10-26T03:08:54;14.50;;;8.83;;
3207;SDS011;1616;52.394;9.756;2022-10-26T03:11:19;20.70;;;9.50;;
3207;SDS011;1616;52.394;9.756;2022-10-26T03:13:45;11.30;;;8.87;;
3207;SDS011;1616;52.394;9.756;2022-10-26T03:16:11;14.37;;;9.13;;
3207;SDS011;1616;52.394;9.756;2022-10-26T03:18:37;12.93;;;9.03;;
3207;SDS011;1616;52.394;9.756;2022-10-26T03:21:03;22.63;;;9.83;;
3207;SDS011;1616;52.394;9.756;2022-10-26T03:23:28;16.80;;;9.10;;
3207;SDS011;1616;52.394;9.756;2022-10-26T03:25:57;16.73;;;9.83;;
3207;SDS011;1616;52.394;9.756;2022-10-26T03:28:23;19.03;;;9.63;;
3207;SDS011;1616;52.394;9.756;2022-10-26T03:30:49;12.93;;;8.87;;
3207;SDS011;1616;52.394;9.756;2022-10-26T03:33:15;17.30;;;9.43;;
3207;SDS011;1616;52.394;9.756;2022-10-26T03:35:41;15.00;;;9.47;;
3207;SDS011;1616;52.394;9.756;2022-10-26T03:38:07;19.07;;;9.13;;
3207;SDS011;1616;52.394;9.756;2022-10-26T03:40:33;15.03;;;9.50;;
3207;SDS011;1616;52.394;9.756;2022-10-26T03:43:00;14.30;;;8.37;;
3207;SDS011;1616;52.394;9.756;2022-10-26T03:45:26;17.03;;;9.17;;
3207;SDS011;1616;52.394;9.756;2022-10-26T03:47:51;13.80;;;10.10;;
3207;SDS011;1616;52.394;9.756;2022-10-26T03:50:18;12.83;;;8.83;;
3207;SDS011;1616;52.394;9.756;2022-10-26T03:52:46;12.03;;;8.40;;
3207;SDS011;1616;52.394;9.756;2022-10-26T03:55:12;14.57;;;8.83;;
3207;SDS011;1616;52.394;9.756;2022-10-26T03:57:39;7.53;;;6.83;;
3207;SDS011;1616;52.394;9.756;2022-10-26T04:00:08;12.07;;;8.37;;
3207;SDS011;1616;52.394;9.756;2022-10-26T04:02:35;14.77;;;9.47;;
3207;SDS011;1616;52.394;9.756;2022-10-26T04:05:01;12.03;;;8.67;;
3207;SDS011;1616;52.394;9.756;2022-10-26T04:07:27;23.13;;;9.43;;
3207;SDS011;1616;52.394;9.756;2022-10-26T04:09:53;10.47;;;7.87;;
3207;SDS011;1616;52.394;9.756;2022-10-26T04:12:18;20.03;;;9.03;;
3207;SDS011;1616;52.394;9.756;2022-10-26T04:14:44;8.27;;;7.17;;
3207;SDS011;1616;52.394;9.756;2022-10-26T04:17:10;23.57;;;8.50;;
3207;SDS011;1616;52.394;9.756;2022-10-26T04:19:36;8.53;;;6.30;;
3207;SDS011;1616;52.394;9.756;2022-10-26T04:22:01;9.23;;;7.00;;
3207;SDS011;1616;52.394;9.756;2022-10-26T04:24:27;10.73;;;6.93;;
3207;SDS011;1616;52.394;9.756;2022-10-26T04:26:53;11.90;;;7.83;;
3207;SDS011;1616;52.394;9.756;2022-10-26T04:29:18;9.07;;;6.57;;
3207;SDS011;1616;52.394;9.756;2022-10-26T04:31:44;13.83;;;6.20;;
3207;SDS011;1616;52.394;9.756;2022-10-26T04:34:09;12.67;;;6.50;;
3207;SDS011;1616;52.394;9.756;2022-10-26T04:36:36;13.60;;;6.83;;
3207;SDS011;1616;52.394;9.756;2022-10-26T04:39:02;9.33;;;7.00;;
3207;SDS011;1616;52.394;9.756;2022-10-26T04:41:28;7.70;;;6.50;;
3207;SDS011;1616;52.394;9.756;2022-10-26T04:43:54;12.40;;;6.57;;
3207;SDS011;1616;52.394;9.756;2022-10-26T04:46:20;8.43;;;6.27;;
3207;SDS011;1616;52.394;9.756;2022-10-26T04:48:47;20.53;;;7.77;;
3207;SDS011;1616;52.394;9.756;2022-10-26T04:51:13;8.60;;;7.00;;
3207;SDS011;1616;52.394;9.756;2022-10-26T04:53:38;15.00;;;7.13;;
3207;SDS011;1616;52.394;9.756;2022-10-26T04:56:04;8.30;;;7.47;;
3207;SDS011;1616;52.394;9.756;2022-10-26T04:58:30;15.00;;;7.60;;
3207;SDS011;1616;52.394;9.756;2022-10-26T05:00:55;9.10;;;7.17;;
3207;SDS011;1616;52.394;9.756;2022-10-26T05:03:21;14.33;;;7.40;;
3207;SDS011;1616;52.394;9.756;2022-10-26T05:05:47;13.53;;;7.60;;
3207;SDS011;1616;52.394;9.756;2022-10-26T05:08:13;18.43;;;6.97;;
3207;SDS011;1616;52.394;9.756;2022-10-26T05:10:40;17.83;;;7.37;;
3207;SDS011;1616;52.394;9.756;2022-10-26T05:13:05;13.47;;;7.67;;
3207;SDS011;1616;52.394;9.756;2022-10-26T05:15:31;23.27;;;8.20;;
3207;SDS011;1616;52.394;9.756;2022-10-26T05:18:01;10.83;;;6.50;;
3207;SDS011;1616;52.394;9.756;2022-10-26T05:20:28;22.33;;;7.40;;
3207;SDS011;1616;52.394;9.756;2022-10-26T05:22:56;13.90;;;7.73;;
3207;SDS011;1616;52.394;9.756;2022-10-26T05:25:23;16.17;;;7.30;;
3207;SDS011;1616;52.394;9.756;2022-10-26T05:27:49;15.30;;;7.27;;
3207;SDS011;1616;52.394;9.756;2022-10-26T05:30:15;12.13;;;7.80;;
3207;SDS011;1616;52.394;9.756;2022-10-26T05:32:41;8.80;;;7.83;;
3207;SDS011;1616;52.394;9.756;2022-10-26T05:35:06;12.87;;;7.87;;
3207;SDS011;1616;52.394;9.756;2022-10-26T05:37:32;20.83;;;7.67;;
3207;SDS011;1616;52.394;9.756;2022-10-26T05:39:58;9.00;;;6.40;;
3207;SDS011;1616;52.394;9.756;2022-10-26T05:42:23;14.37;;;8.07;;
3207;SDS011;1616;52.394;9.756;2022-10-26T05:44:49;11.27;;;7.43;;
3207;SDS011;1616;52.394;9.756;2022-10-26T05:47:15;8.87;;;6.93;;
3207;SDS011;1616;52.394;9.756;2022-10-26T05:49:41;13.20;;;8.33;;
3207;SDS011;1616;52.394;9.756;2022-10-26T05:52:07;15.60;;;7.80;;
3207;SDS011;1616;52.394;9.756;2022-10-26T05:54:32;13.80;;;7.67;;
3207;SDS011;1616;52.394;9.756;2022-10-26T05:56:58;12.17;;;8.03;;
3207;SDS011;1616;52.394;9.756;2022-10-26T05:59:24;12.43;;;8.60;;
3207;SDS011;1616;52.394;9.756;2022-10-26T06:04:50;11.47;;;7.13;;
3207;SDS011;1616;52.394;9.756;2022-10-26T06:07:21;12.13;;;7.33;;
3207;SDS011;1616;52.394;9.756;2022-10-26T06:09:47;15.77;;;5.73;;
3207;SDS011;1616;52.394;9.756;2022-10-26T06:12:14;12.20;;;7.00;;
3207;SDS011;1616;52.394;9.756;2022-10-26T06:14:40;11.57;;;5.30;;
3207;SDS011;1616;52.394;9.756;2022-10-26T06:17:11;7.93;;;7.03;;
3207;SDS011;1616;52.394;9.756;2022-10-26T06:19:54;9.10;;;5.20;;
3207;SDS011;1616;52.394;9.756;2022-10-26T06:28:13;8.23;;;6.70;;
3207;SDS011;1616;52.394;9.756;2022-10-26T06:30:57;12.93;;;6.10;;
3207;SDS011;1616;52.394;9.756;2022-10-26T06:33:23;14.80;;;6.20;;
3207;SDS011;1616;52.394;9.756;2022-10-26T06:36:06;10.37;;;6.30;;
3207;SDS011;1616;52.394;9.756;2022-10-26T06:38:46;11.40;;;6.70;;
3207;SDS011;1616;52.394;9.756;2022-10-26T06:41:14;6.57;;;5.73;;
3207;SDS011;1616;52.394;9.756;2022-10-26T06:43:43;16.53;;;7.13;;
3207;SDS011;1616;52.394;9.756;2022-10-26T06:51:59;6.83;;;6.23;;
3207;SDS011;1616;52.394;9.756;2022-10-26T06:57:10;6.80;;;4.20;;
3207;SDS011;1616;52.394;9.756;2022-10-26T06:59:42;14.70;;;3.80;;
3207;SDS011;1616;52.394;9.756;2022-10-26T07:02:12;4.10;;;3.33;;
3207;SDS011;1616;52.394;9.756;2022-10-26T07:04:39;6.43;;;3.17;;
3207;SDS011;1616;52.394;9.756;2022-10-26T07:07:05;5.23;;;4.07;;
3207;SDS011;1616;52.394;9.756;2022-10-26T07:09:33;3.13;;;2.83;;
3207;SDS011;1616;52.394;9.756;2022-10-26T07:11:58;7.57;;;3.97;;
3207;SDS011;1616;52.394;9.756;2022-10-26T07:14:24;4.77;;;3.60;;
3207;SDS011;1616;52.394;9.756;2022-10-26T07:16:50;3.80;;;2.80;;
3207;SDS011;1616;52.394;9.756;2022-10-26T07:19:16;6.50;;;3.27;;
3207;SDS011;1616;52.394;9.756;2022-10-26T07:21:41;6.20;;;2.53;;
3207;SDS011;1616;52.394;9.756;2022-10-26T07:24:07;7.30;;;2.47;;
3207;SDS011;1616;52.394;9.756;2022-10-26T07:26:33;3.50;;;2.40;;
3207;SDS011;1616;52.394;9.756;2022-10-26T07:28:58;4.43;;;2.83;;
3207;SDS011;1616;52.394;9.756;2022-10-26T07:31:24;4.50;;;2.47;;
3207;SDS011;1616;52.394;9.756;2022-10-26T07:33:52;2.90;;;2.03;;
3207;SDS011;1616;52.394;9.756;2022-10-26T07:36:18;5.23;;;2.27;;
3207;SDS011;1616;52.394;9.756;2022-10-26T07:38:43;4.43;;;2.33;;
3207;SDS011;1616;52.394;9.756;2022-10-26T07:41:09;10.00;;;2.67;;
3207;SDS011;1616;52.394;9.756;2022-10-26T07:43:35;7.40;;;2.70;;
3207;SDS011;1616;52.394;9.756;2022-10-26T07:46:01;4.67;;;2.83;;
3207;SDS011;1616;52.394;9.756;2022-10-26T07:48:27;6.57;;;3.17;;
3207;SDS011;1616;52.394;9.756;2022-10-26T07:50:52;5.00;;;2.50;;
3207;SDS011;1616;52.394;9.756;2022-10-26T07:53:18;4.87;;;3.00;;
3207;SDS011;1616;52.394;9.756;2022-10-26T07:55:51;5.93;;;2.53;;
3207;SDS011;1616;52.394;9.756;2022-10-26T07:58:20;12.63;;;2.07;;
3207;SDS011;1616;52.394;9.756;2022-10-26T08:00:48;2.70;;;2.50;;
3207;SDS011;1616;52.394;9.756;2022-10-26T08:03:14;3.67;;;2.80;;
3207;SDS011;1616;52.394;9.756;2022-10-26T08:05:41;2.90;;;2.70;;
3207;SDS011;1616;52.394;9.756;2022-10-26T08:08:07;7.03;;;2.60;;
3207;SDS011;1616;52.394;9.756;2022-10-26T08:10:32;7.13;;;2.47;;
3207;SDS011;1616;52.394;9.756;2022-10-26T08:12:58;5.87;;;2.60;;
3207;SDS011;1616;52.394;9.756;2022-10-26T08:15:24;5.93;;;3.37;;
3207;SDS011;1616;52.394;9.756;2022-10-26T08:17:49;5.90;;;2.80;;
3207;SDS011;1616;52.394;9.756;2022-10-26T08:20:15;4.43;;;2.90;;
3207;SDS011;1616;52.394;9.756;2022-10-26T08:22:40;6.10;;;2.60;;
3207;SDS011;1616;52.394;9.756;2022-10-26T08:25:06;6.80;;;3.27;;
3207;SDS011;1616;52.394;9.756;2022-10-26T08:27:32;9.27;;;2.67;;
3207;SDS011;1616;52.394;9.756;2022-10-26T08:29:58;3.50;;;2.63;;
3207;SDS011;1616;52.394;9.756;2022-10-26T08:32:24;4.83;;;3.00;;
3207;SDS011;1616;52.394;9.756;2022-10-26T08:34:49;2.83;;;2.40;;
3207;SDS011;1616;52.394;9.756;2022-10-26T08:37:15;10.33;;;3.90;;
3207;SDS011;1616;52.394;9.756;2022-10-26T08:39:41;9.73;;;3.50;;
3207;SDS011;1616;52.394;9.756;2022-10-26T08:42:10;3.03;;;2.77;;
3207;SDS011;1616;52.394;9.756;2022-10-26T08:44:46;6.63;;;2.80;;
3207;SDS011;1616;52.394;9.756;2022-10-26T08:47:15;6.83;;;2.83;;
3207;SDS011;1616;52.394;9.756;2022-10-26T08:52:38;4.30;;;2.90;;
3207;SDS011;1616;52.394;9.756;2022-10-26T08:55:11;3.20;;;2.33;;
3207;SDS011;1616;52.394;9.756;2022-10-26T08:57:40;5.73;;;3.00;;
3207;SDS011;1616;52.394;9.756;2022-10-26T09:00:11;7.23;;;3.33;;
3207;SDS011;1616;52.394;9.756;2022-10-26T09:02:41;3.90;;;2.60;;
3207;SDS011;1616;52.394;9.756;2022-10-26T09:05:15;8.53;;;2.83;;
3207;SDS011;1616;52.394;9.756;2022-10-26T09:08:17;12.70;;;2.93;;
3207;SDS011;1616;52.394;9.756;2022-10-26T09:11:23;3.40;;;2.77;;
3207;SDS011;1616;52.394;9.756;2022-10-26T09:18:54;3.40;;;2.40;;
3207;SDS011;1616;52.394;9.756;2022-10-26T09:21:52;5.50;;;2.30;;
3207;SDS011;1616;52.394;9.756;2022-10-26T09:24:32;10.00;;;2.20;;
3207;SDS011;1616;52.394;9.756;2022-10-26T09:29:45;2.70;;;1.70;;
3207;SDS011;1616;52.394;9.756;2022-10-26T09:32:13;1.83;;;1.63;;
3207;SDS011;1616;52.394;9.756;2022-10-26T09:35:02;2.73;;;1.40;;
3207;SDS011;1616;52.394;9.756;2022-10-26T09:37:48;3.20;;;1.40;;
3207;SDS011;1616;52.394;9.756;2022-10-26T09:45:52;1.80;;;1.30;;
3207;SDS011;1616;52.394;9.756;2022-10-26T09:50:47;5.70;;;1.30;;
3207;SDS011;1616;52.394;9.756;2022-10-26T09:53:14;4.83;;;1.30;;
3207;SDS011;1616;52.394;9.756;2022-10-26T09:55:41;4.10;;;1.20;;
3207;SDS011;1616;52.394;9.756;2022-10-26T09:58:19;1.80;;;1.20;;
3207;SDS011;1616;52.394;9.756;2022-10-26T10:00:48;3.43;;;1.37;;
3207;SDS011;1616;52.394;9.756;2022-10-26T10:03:19;2.30;;;1.20;;
3207;SDS011;1616;52.394;9.756;2022-10-26T10:05:51;4.40;;;1.10;;
3207;SDS011;1616;52.394;9.756;2022-10-26T10:08:23;2.30;;;1.40;;
3207;SDS011;1616;52.394;9.756;2022-10-26T10:13:30;3.27;;;1.53;;
3207;SDS011;1616;52.394;9.756;2022-10-26T10:18:35;5.70;;;1.23;;
3207;SDS011;1616;52.394;9.756;2022-10-26T10:21:02;5.13;;;1.27;;
3207;SDS011;1616;52.394;9.756;2022-10-26T10:23:35;1.57;;;1.47;;
3207;SDS011;1616;52.394;9.756;2022-10-26T10:26:10;3.20;;;1.30;;
3207;SDS011;1616;52.394;9.756;2022-10-26T10:28:36;8.53;;;1.50;;
3207;SDS011;1616;52.394;9.756;2022-10-26T10:31:03;2.10;;;1.13;;
3207;SDS011;1616;52.394;9.756;2022-10-26T10:33:42;2.37;;;1.80;;
3207;SDS011;1616;52.394;9.756;2022-10-26T10:36:10;1.77;;;1.20;;
3207;SDS011;1616;52.394;9.756;2022-10-26T10:38:41;4.40;;;1.80;;
3207;SDS011;1616;52.394;9.756;2022-10-26T10:41:16;3.37;;;1.43;;
3207;SDS011;1616;52.394;9.756;2022-10-26T10:43:45;2.33;;;1.60;;
3207;SDS011;1616;52.394;9.756;2022-10-26T10:46:17;5.03;;;1.47;;
3207;SDS011;1616;52.394;9.756;2022-10-26T10:48:46;4.17;;;1.40;;
3207;SDS011;1616;52.394;9.756;2022-10-26T10:51:17;6.47;;;1.20;;
3207;SDS011;1616;52.394;9.756;2022-10-26T10:53:47;4.80;;;1.93;;
3207;SDS011;1616;52.394;9.756;2022-10-26T10:56:29;4.50;;;1.30;;
3207;SDS011;1616;52.394;9.756;2022-10-26T11:02:29;2.77;;;1.80;;
3207;SDS011;1616;52.394;9.756;2022-10-26T11:10:59;4.93;;;1.60;;
3207;SDS011;1616;52.394;9.756;2022-10-26T11:16:18;7.63;;;1.50;;
3207;SDS011;1616;52.394;9.756;2022-10-26T11:18:58;6.80;;;1.50;;
3207;SDS011;1616;52.394;9.756;2022-10-26T11:21:30;4.57;;;1.77;;
3207;SDS011;1616;52.394;9.756;2022-10-26T11:26:52;6.93;;;1.30;;
3207;SDS011;1616;52.394;9.756;2022-10-26T11:31:56;4.83;;;1.30;;
3207;SDS011;1616;52.394;9.756;2022-10-26T11:37:08;3.87;;;1.13;;
3207;SDS011;1616;52.394;9.756;2022-10-26T11:39:46;2.20;;;1.00;;
3207;SDS011;1616;52.394;9.756;2022-10-26T11:42:45;1.97;;;1.00;;
3207;SDS011;1616;52.394;9.756;2022-10-26T11:48:33;1.77;;;0.97;;
3207;SDS011;1616;52.394;9.756;2022-10-26T11:50:57;2.50;;;0.97;;
3207;SDS011;1616;52.394;9.756;2022-10-26T11:53:25;2.87;;;0.80;;
3207;SDS011;1616;52.394;9.756;2022-10-26T11:55:55;1.50;;;0.93;;
3207;SDS011;1616;52.394;9.756;2022-10-26T11:58:22;3.73;;;1.13;;
3207;SDS011;1616;52.394;9.756;2022-10-26T12:00:57;4.00;;;1.33;;
3207;SDS011;1616;52.394;9.756;2022-10-26T12:03:31;2.70;;;1.10;;
3207;SDS011;1616;52.394;9.756;2022-10-26T12:06:00;1.20;;;0.93;;
3207;SDS011;1616;52.394;9.756;2022-10-26T12:08:35;1.60;;;0.80;;
3207;SDS011;1616;52.394;9.756;2022-10-26T12:11:17;3.10;;;1.27;;
3207;SDS011;1616;52.394;9.756;2022-10-26T12:14:13;4.40;;;1.10;;
3207;SDS011;1616;52.394;9.756;2022-10-26T12:17:03;1.73;;;0.90;;
3207;SDS011;1616;52.394;9.756;2022-10-26T12:19:59;5.53;;;1.47;;
3207;SDS011;1616;52.394;9.756;2022-10-26T12:22:32;2.20;;;1.10;;
3207;SDS011;1616;52.394;9.756;2022-10-26T12:32:48;3.70;;;1.20;;
3207;SDS011;1616;52.394;9.756;2022-10-26T12:54:07;1.93;;;0.90;;
3207;SDS011;1616;52.394;9.756;2022-10-26T12:56:56;1.67;;;0.90;;
3207;SDS011;1616;52.394;9.756;2022-10-26T13:02:23;4.33;;;1.00;;
3207;SDS011;1616;52.394;9.756;2022-10-26T13:07:57;1.97;;;1.27;;
3207;SDS011;1616;52.394;9.756;2022-10-26T13:10:27;1.47;;;0.90;;
3207;SDS011;1616;52.394;9.756;2022-10-26T13:12:54;5.50;;;1.10;;
3207;SDS011;1616;52.394;9.756;2022-10-26T13:18:14;1.57;;;1.00;;
3207;SDS011;1616;52.394;9.756;2022-10-26T13:23:33;2.13;;;1.00;;
3207;SDS011;1616;52.394;9.756;2022-10-26T13:31:02;3.63;;;0.90;;
3207;SDS011;1616;52.394;9.756;2022-10-26T13:33:46;1.47;;;0.90;;
3207;SDS011;1616;52.394;9.756;2022-10-26T13:36:17;4.40;;;1.00;;
3207;SDS011;1616;52.394;9.756;2022-10-26T13:38:59;4.47;;;1.10;;
3207;SDS011;1616;52.394;9.756;2022-10-26T13:41:31;2.20;;;1.23;;
3207;SDS011;1616;52.394;9.756;2022-10-26T13:43:58;3.73;;;1.13;;
3207;SDS011;1616;52.394;9.756;2022-10-26T13:46:29;3.57;;;1.47;;
3207;SDS011;1616;52.394;9.756;2022-10-26T13:49:05;1.50;;;1.10;;
3207;SDS011;1616;52.394;9.756;2022-10-26T13:51:39;3.50;;;0.90;;
3207;SDS011;1616;52.394;9.756;2022-10-26T13:56:47;3.20;;;1.30;;
3207;SDS011;1616;52.394;9.756;2022-10-26T13:59:38;1.57;;;0.80;;
3207;SDS011;1616;52.394;9.756;2022-10-26T14:02:17;9.60;;;1.13;;
3207;SDS011;1616;52.394;9.756;2022-10-26T14:04:52;2.90;;;1.00;;
3207;SDS011;1616;52.394;9.756;2022-10-26T14:07:24;1.77;;;1.03;;
3207;SDS011;1616;52.394;9.756;2022-10-26T14:10:06;4.80;;;1.27;;
3207;SDS011;1616;52.394;9.756;2022-10-26T14:12:32;7.67;;;1.60;;
3207;SDS011;1616;52.394;9.756;2022-10-26T14:15:07;1.83;;;1.10;;
3207;SDS011;1616;52.394;9.756;2022-10-26T14:17:34;1.97;;;1.00;;
3207;SDS011;1616;52.394;9.756;2022-10-26T14:20:00;2.30;;;1.00;;
3207;SDS011;1616;52.394;9.756;2022-10-26T14:22:27;4.50;;;1.43;;
3207;SDS011;1616;52.394;9.756;2022-10-26T14:24:55;4.63;;;1.40;;
3207;SDS011;1616;52.394;9.756;2022-10-26T14:27:23;6.50;;;1.20;;
3207;SDS011;1616;52.394;9.756;2022-10-26T14:29:52;1.77;;;1.20;;
3207;SDS011;1616;52.394;9.756;2022-10-26T14:32:29;3.17;;;1.00;;
3207;SDS011;1616;52.394;9.756;2022-10-26T14:34:57;4.20;;;0.90;;
3207;SDS011;1616;52.394;9.756;2022-10-26T14:37:27;1.30;;;0.93;;
3207;SDS011;1616;52.394;9.756;2022-10-26T14:40:00;2.60;;;1.00;;
3207;SDS011;1616;52.394;9.756;2022-10-26T14:45:02;2.53;;;1.40;;
3207;SDS011;1616;52.394;9.756;2022-10-26T14:47:28;8.20;;;1.10;;
3207;SDS011;1616;52.394;9.756;2022-10-26T14:49:57;1.30;;;1.20;;
3207;SDS011;1616;52.394;9.756;2022-10-26T14:52:25;7.87;;;1.30;;
3207;SDS011;1616;52.394;9.756;2022-10-26T14:55:01;3.67;;;1.20;;
3207;SDS011;1616;52.394;9.756;2022-10-26T14:57:39;1.47;;;1.07;;
3207;SDS011;1616;52.394;9.756;2022-10-26T15:00:20;9.00;;;1.40;;
3207;SDS011;1616;52.394;9.756;2022-10-26T15:02:51;4.23;;;1.40;;
3207;SDS011;1616;52.394;9.756;2022-10-26T15:07:51;5.07;;;1.73;;
3207;SDS011;1616;52.394;9.756;2022-10-26T15:15:33;4.83;;;1.80;;
3207;SDS011;1616;52.394;9.756;2022-10-26T15:17:59;2.00;;;1.50;;
3207;SDS011;1616;52.394;9.756;2022-10-26T15:20:26;2.60;;;1.50;;
3207;SDS011;1616;52.394;9.756;2022-10-26T15:22:54;10.30;;;1.50;;
3207;SDS011;1616;52.394;9.756;2022-10-26T15:25:27;5.97;;;1.40;;
3207;SDS011;1616;52.394;9.756;2022-10-26T15:28:09;4.97;;;2.00;;
3207;SDS011;1616;52.394;9.756;2022-10-26T15:30:36;2.70;;;1.47;;
3207;SDS011;1616;52.394;9.756;2022-10-26T15:33:18;4.67;;;1.43;;
3207;SDS011;1616;52.394;9.756;2022-10-26T15:35:46;3.20;;;1.43;;
3207;SDS011;1616;52.394;9.756;2022-10-26T15:38:12;3.90;;;1.50;;
3207;SDS011;1616;52.394;9.756;2022-10-26T15:40:40;8.13;;;1.40;;
3207;SDS011;1616;52.394;9.756;2022-10-26T15:43:08;2.03;;;1.43;;
3207;SDS011;1616;52.394;9.756;2022-10-26T15:45:36;5.40;;;2.00;;
3207;SDS011;1616;52.394;9.756;2022-10-26T15:48:18;2.53;;;1.30;;
3207;SDS011;1616;52.394;9.756;2022-10-26T15:50:49;4.80;;;1.60;;
3207;SDS011;1616;52.394;9.756;2022-10-26T15:53:16;3.73;;;1.73;;
3207;SDS011;1616;52.394;9.756;2022-10-26T15:55:45;10.83;;;1.90;;
3207;SDS011;1616;52.394;9.756;2022-10-26T15:58:11;2.07;;;1.87;;
3207;SDS011;1616;52.394;9.756;2022-10-26T16:00:38;3.40;;;2.30;;
3207;SDS011;1616;52.394;9.756;2022-10-26T16:03:04;3.67;;;2.13;;
3207;SDS011;1616;52.394;9.756;2022-10-26T16:05:29;2.53;;;1.40;;
3207;SDS011;1616;52.394;9.756;2022-10-26T16:07:55;4.37;;;1.73;;
3207;SDS011;1616;52.394;9.756;2022-10-26T16:10:22;3.50;;;1.60;;
3207;SDS011;1616;52.394;9.756;2022-10-26T16:12:49;6.30;;;1.63;;
3207;SDS011;1616;52.394;9.756;2022-10-26T16:15:19;2.73;;;1.70;;
3207;SDS011;1616;52.394;9.756;2022-10-26T16:17:51;6.50;;;1.80;;
3207;SDS011;1616;52.394;9.756;2022-10-26T16:20:19;9.47;;;2.60;;
3207;SDS011;1616;52.394;9.756;2022-10-26T16:22:47;3.57;;;1.60;;
3207;SDS011;1616;52.394;9.756;2022-10-26T16:25:15;3.10;;;1.63;;
3207;SDS011;1616;52.394;9.756;2022-10-26T16:27:41;3.60;;;1.80;;
3207;SDS011;1616;52.394;9.756;2022-10-26T16:30:08;3.90;;;1.73;;
3207;SDS011;1616;52.394;9.756;2022-10-26T16:32:34;3.93;;;1.70;;
3207;SDS011;1616;52.394;9.756;2022-10-26T16:35:00;1.80;;;1.60;;
3207;SDS011;1616;52.394;9.756;2022-10-26T16:37:27;1.83;;;1.60;;
3207;SDS011;1616;52.394;9.756;2022-10-26T16:39:54;4.47;;;2.33;;
3207;SDS011;1616;52.394;9.756;2022-10-26T16:42:20;4.60;;;1.90;;
3207;SDS011;1616;52.394;9.756;2022-10-26T16:44:46;4.00;;;2.13;;
3207;SDS011;1616;52.394;9.756;2022-10-26T16:47:12;7.37;;;2.23;;
3207;SDS011;1616;52.394;9.756;2022-10-26T16:49:37;4.90;;;2.20;;
3207;SDS011;1616;52.394;9.756;2022-10-26T16:52:07;2.47;;;2.00;;
3207;SDS011;1616;52.394;9.756;2022-10-26T16:54:34;2.60;;;1.90;;
3207;SDS011;1616;52.394;9.756;2022-10-26T16:56:59;3.30;;;1.90;;
3207;SDS011;1616;52.394;9.756;2022-10-26T16:59:25;2.80;;;2.40;;
3207;SDS011;1616;52.394;9.756;2022-10-26T17:01:51;3.50;;;2.80;;
3207;SDS011;1616;52.394;9.756;2022-10-26T17:04:18;3.10;;;2.00;;
3207;SDS011;1616;52.394;9.756;2022-10-26T17:06:43;2.27;;;2.07;;
3207;SDS011;1616;52.394;9.756;2022-10-26T17:09:09;4.33;;;2.40;;
3207;SDS011;1616;52.394;9.756;2022-10-26T17:11:34;4.10;;;2.67;;
3207;SDS011;1616;52.394;9.756;2022-10-26T17:14:00;5.40;;;2.97;;
3207;SDS011;1616;52.394;9.756;2022-10-26T17:16:26;4.40;;;2.47;;
3207;SDS011;1616;52.394;9.756;2022-10-26T17:18:53;2.37;;;2.17;;
3207;SDS011;1616;52.394;9.756;2022-10-26T17:21:20;6.30;;;2.97;;
3207;SDS011;1616;52.394;9.756;2022-10-26T17:23:55;6.67;;;2.77;;
3207;SDS011;1616;52.394;9.756;2022-10-26T17:26:21;5.23;;;4.27;;
3207;SDS011;1616;52.394;9.756;2022-10-26T17:28:50;10.00;;;5.77;;
3207;SDS011;1616;52.394;9.756;2022-10-26T17:31:17;6.50;;;5.87;;
3207;SDS011;1616;52.394;9.756;2022-10-26T17:33:43;11.97;;;6.00;;
3207;SDS011;1616;52.394;9.756;2022-10-26T17:36:11;8.03;;;5.13;;
3207;SDS011;1616;52.394;9.756;2022-10-26T17:38:39;4.93;;;4.53;;
3207;SDS011;1616;52.394;9.756;2022-10-26T17:41:07;6.97;;;5.20;;
3207;SDS011;1616;52.394;9.756;2022-10-26T17:43:38;9.20;;;6.37;;
3207;SDS011;1616;52.394;9.756;2022-10-26T17:46:14;14.13;;;5.13;;
3207;SDS011;1616;52.394;9.756;2022-10-26T17:48:41;12.83;;;3.90;;
3207;SDS011;1616;52.394;9.756;2022-10-26T17:51:15;14.97;;;6.33;;
3207;SDS011;1616;52.394;9.756;2022-10-26T17:53:42;5.83;;;4.53;;
3207;SDS011;1616;52.394;9.756;2022-10-26T17:56:12;9.07;;;6.40;;
3207;SDS011;1616;52.394;9.756;2022-10-26T17:58:40;6.37;;;5.80;;
3207;SDS011;1616;52.394;9.756;2022-10-26T18:01:07;10.63;;;6.43;;
3207;SDS011;1616;52.394;9.756;2022-10-26T18:03:35;6.53;;;5.43;;